sensor_id;sensor_type;location;lat;lon;timestamp;pressure;altitude;pressure_sealevel;temperature;humidity
5877;BME280;2964;42.144;24.730;2023-04-09T00:01:02;143627.00;;;8.17;100.00
5877;BME280;2964;42.144;24.730;2023-04-09T00:03:28;143623.22;;;8.16;100.00
5877;BME280;2964;42.144;24.730;2023-04-09T00:05:55;143621.94;;;8.15;100.00
5877;BME280;2964;42.144;24.730;2023-04-09T00:08:23;143613.22;;;8.11;100.00
5877;BME280;2964;42.144;24.730;2023-04-09T00:10:50;143609.44;;;8.10;100.00
5877;BME280;2964;42.144;24.730;2023-04-09T00:13:17;143601.91;;;8.07;100.00
5877;BME280;2964;42.144;24.730;2023-04-09T00:15:43;143591.88;;;8.03;100.00
5877;BME280;2964;42.144;24.730;2023-04-09T00:18:10;143544.25;;;7.83;100.00
5877;BME280;2964;42.144;24.730;2023-04-09T00:20:37;143605.69;;;8.08;100.00
5877;BME280;2964;42.144;24.730;2023-04-09T00:23:04;143598.13;;;8.05;100.00
5877;BME280;2964;42.144;24.730;2023-04-09T00:25:32;143566.81;;;7.92;100.00
5877;BME280;2964;42.144;24.730;2023-04-09T00:27:58;143571.81;;;7.95;100.00
5877;BME280;2964;42.144;24.730;2023-04-09T00:30:27;143486.59;;;7.60;100.00
5877;BME280;2964;42.144;24.730;2023-04-09T00:32:54;143430.22;;;7.37;100.00
5877;BME280;2964;42.144;24.730;2023-04-09T00:35:20;143472.81;;;7.54;100.00
5877;BME280;2964;42.144;24.730;2023-04-09T00:37:49;143446.53;;;7.43;100.00
5877;BME280;2964;42.144;24.730;2023-04-09T00:40:16;143495.38;;;7.63;100.00
5877;BME280;2964;42.144;24.730;2023-04-09T00:42:44;143509.16;;;7.69;100.00
5877;BME280;2964;42.144;24.730;2023-04-09T00:45:11;143526.69;;;7.76;100.00
5877;BME280;2964;42.144;24.730;2023-04-09T00:47:38;143524.22;;;7.75;100.00
5877;BME280;2964;42.144;24.730;2023-04-09T00:50:05;143479.09;;;7.57;100.00
5877;BME280;2964;42.144;24.730;2023-04-09T00:52:32;143511.66;;;7.70;100.00
5877;BME280;2964;42.144;24.730;2023-04-09T00:55:00;143524.22;;;7.75;100.00
5877;BME280;2964;42.144;24.730;2023-04-09T00:57:27;143534.22;;;7.79;100.00
5877;BME280;2964;42.144;24.730;2023-04-09T00:59:55;143454.03;;;7.46;100.00
5877;BME280;2964;42.144;24.730;2023-04-09T01:02:22;143446.53;;;7.43;100.00
5877;BME280;2964;42.144;24.730;2023-04-09T01:04:49;143439.00;;;7.40;100.00
5877;BME280;2964;42.144;24.730;2023-04-09T01:07:30;143461.56;;;7.49;100.00
5877;BME280;2964;42.144;24.730;2023-04-09T01:10:08;143454.03;;;7.46;100.00
5877;BME280;2964;42.144;24.730;2023-04-09T01:12:44;143484.13;;;7.59;100.00
5877;BME280;2964;42.144;24.730;2023-04-09T01:15:20;143486.59;;;7.60;100.00
5877;BME280;2964;42.144;24.730;2023-04-09T01:17:52;143484.13;;;7.59;100.00
5877;BME280;2964;42.144;24.730;2023-04-09T01:20:28;143431.47;;;7.37;100.00
5877;BME280;2964;42.144;24.730;2023-04-09T01:23:00;143446.53;;;7.43;100.00
5877;BME280;2964;42.144;24.730;2023-04-09T01:25:42;143431.47;;;7.37;100.00
5877;BME280;2964;42.144;24.730;2023-04-09T01:28:19;143402.69;;;7.25;100.00
5877;BME280;2964;42.144;24.730;2023-04-09T01:30:48;143408.94;;;7.28;100.00
5877;BME280;2964;42.144;24.730;2023-04-09T01:33:16;143381.38;;;7.17;100.00
5877;BME280;2964;42.144;24.730;2023-04-09T01:35:45;143388.91;;;7.20;100.00
5877;BME280;2964;42.144;24.730;2023-04-09T01:38:13;143422.69;;;7.33;100.00
5877;BME280;2964;42.144;24.730;2023-04-09T01:40:42;143425.22;;;7.34;100.00
5877;BME280;2964;42.144;24.730;2023-04-09T01:43:09;143435.25;;;7.39;100.00
5877;BME280;2964;42.144;24.730;2023-04-09T01:45:38;143382.63;;;7.17;100.00
5877;BME280;2964;42.144;24.730;2023-04-09T01:48:05;143441.47;;;7.41;100.00
5877;BME280;2964;42.144;24.730;2023-04-09T01:50:32;143439.00;;;7.40;100.00
5877;BME280;2964;42.144;24.730;2023-04-09T01:53:00;143445.25;;;7.43;100.00
5877;BME280;2964;42.144;24.730;2023-04-09T01:55:27;143441.47;;;7.41;100.00
5877;BME280;2964;42.144;24.730;2023-04-09T01:57:53;143450.25;;;7.45;100.00
5877;BME280;2964;42.144;24.730;2023-04-09T02:00:20;143434.00;;;7.38;100.00
5877;BME280;2964;42.144;24.730;2023-04-09T02:02:56;143398.91;;;7.24;100.00
5877;BME280;2964;42.144;24.730;2023-04-09T02:05:24;143447.78;;;7.44;100.00
5877;BME280;2964;42.144;24.730;2023-04-09T02:07:55;143429.00;;;7.36;100.00
5877;BME280;2964;42.144;24.730;2023-04-09T02:10:25;143429.00;;;7.36;100.00
5877;BME280;2964;42.144;24.730;2023-04-09T02:12:53;143371.38;;;7.12;100.00
5877;BME280;2964;42.144;24.730;2023-04-09T02:15:22;143420.22;;;7.32;100.00
5877;BME280;2964;42.144;24.730;2023-04-09T02:17:51;143413.94;;;7.30;100.00
5877;BME280;2964;42.144;24.730;2023-04-09T02:20:18;143342.53;;;7.01;100.00
5877;BME280;2964;42.144;24.730;2023-04-09T02:22:46;143380.13;;;7.16;100.00
5877;BME280;2964;42.144;24.730;2023-04-09T02:25:13;143452.78;;;7.46;100.00
5877;BME280;2964;42.144;24.730;2023-04-09T02:27:40;143397.69;;;7.23;100.00
5877;BME280;2964;42.144;24.730;2023-04-09T02:30:07;143356.31;;;7.06;100.00
5877;BME280;2964;42.144;24.730;2023-04-09T02:32:34;143413.94;;;7.30;100.00
5877;BME280;2964;42.144;24.730;2023-04-09T02:35:02;143434.00;;;7.38;100.00
5877;BME280;2964;42.144;24.730;2023-04-09T02:37:29;143446.53;;;7.43;100.00
5877;BME280;2964;42.144;24.730;2023-04-09T02:39:56;143432.72;;;7.38;100.00
5877;BME280;2964;42.144;24.730;2023-04-09T02:42:22;143407.69;;;7.27;100.00
5877;BME280;2964;42.144;24.730;2023-04-09T02:44:49;143436.47;;;7.39;100.00
5877;BME280;2964;42.144;24.730;2023-04-09T02:47:16;143415.22;;;7.30;100.00
5877;BME280;2964;42.144;24.730;2023-04-09T02:49:42;143439.00;;;7.40;100.00
5877;BME280;2964;42.144;24.730;2023-04-09T02:52:10;143393.91;;;7.22;100.00
5877;BME280;2964;42.144;24.730;2023-04-09T02:54:37;143393.91;;;7.22;100.00
5877;BME280;2964;42.144;24.730;2023-04-09T02:57:03;143390.16;;;7.20;100.00
5877;BME280;2964;42.144;24.730;2023-04-09T02:59:30;143332.53;;;6.96;100.00
5877;BME280;2964;42.144;24.730;2023-04-09T03:01:58;143378.84;;;7.15;100.00
5877;BME280;2964;42.144;24.730;2023-04-09T03:04:24;143335.03;;;6.98;100.00
5877;BME280;2964;42.144;24.730;2023-04-09T03:06:51;143326.28;;;6.94;100.00
5877;BME280;2964;42.144;24.730;2023-04-09T03:09:19;143331.28;;;6.96;100.00
5877;BME280;2964;42.144;24.730;2023-04-09T03:11:45;143271.19;;;6.71;100.00
5877;BME280;2964;42.144;24.730;2023-04-09T03:14:12;143291.19;;;6.80;100.00
5877;BME280;2964;42.144;24.730;2023-04-09T03:16:39;143301.22;;;6.84;100.00
5877;BME280;2964;42.144;24.730;2023-04-09T03:19:05;143316.28;;;6.90;100.00
5877;BME280;2964;42.144;24.730;2023-04-09T03:21:32;143274.91;;;6.73;100.00
5877;BME280;2964;42.144;24.730;2023-04-09T03:23:59;143316.28;;;6.90;100.00
5877;BME280;2964;42.144;24.730;2023-04-09T03:26:27;143356.31;;;7.06;100.00
5877;BME280;2964;42.144;24.730;2023-04-09T03:29:00;143328.75;;;6.95;100.00
5877;BME280;2964;42.144;24.730;2023-04-09T03:31:27;143340.06;;;7.00;100.00
5877;BME280;2964;42.144;24.730;2023-04-09T03:33:53;143303.72;;;6.85;100.00
5877;BME280;2964;42.144;24.730;2023-04-09T03:36:20;143363.84;;;7.09;100.00
5877;BME280;2964;42.144;24.730;2023-04-09T03:38:47;143326.28;;;6.94;100.00
5877;BME280;2964;42.144;24.730;2023-04-09T03:41:13;143335.03;;;6.98;100.00
5877;BME280;2964;42.144;24.730;2023-04-09T03:43:42;143306.22;;;6.86;100.00
5877;BME280;2964;42.144;24.730;2023-04-09T03:46:11;143311.22;;;6.88;100.00
5877;BME280;2964;42.144;24.730;2023-04-09T03:48:38;143340.06;;;7.00;100.00
5877;BME280;2964;42.144;24.730;2023-04-09T03:51:05;143317.50;;;6.90;100.00
5877;BME280;2964;42.144;24.730;2023-04-09T03:53:32;143341.28;;;7.00;100.00
5877;BME280;2964;42.144;24.730;2023-04-09T03:55:59;143351.28;;;7.04;100.00
5877;BME280;2964;42.144;24.730;2023-04-09T03:58:26;143345.06;;;7.02;100.00
5877;BME280;2964;42.144;24.730;2023-04-09T04:00:54;143283.69;;;6.76;100.00
5877;BME280;2964;42.144;24.730;2023-04-09T04:03:21;143348.81;;;7.03;100.00
5877;BME280;2964;42.144;24.730;2023-04-09T04:05:48;143335.03;;;6.98;100.00
5877;BME280;2964;42.144;24.730;2023-04-09T04:08:14;143311.22;;;6.88;100.00
5877;BME280;2964;42.144;24.730;2023-04-09T04:10:41;143360.06;;;7.08;100.00
5877;BME280;2964;42.144;24.730;2023-04-09T04:13:08;143341.28;;;7.00;100.00
5877;BME280;2964;42.144;24.730;2023-04-09T04:15:38;143318.75;;;6.91;100.00
5877;BME280;2964;42.144;24.730;2023-04-09T04:18:07;143371.38;;;7.12;100.00
5877;BME280;2964;42.144;24.730;2023-04-09T04:20:35;143393.91;;;7.22;100.00
5877;BME280;2964;42.144;24.730;2023-04-09T04:23:01;143382.63;;;7.17;100.00
5877;BME280;2964;42.144;24.730;2023-04-09T04:25:28;143403.91;;;7.26;100.00
5877;BME280;2964;42.144;24.730;2023-04-09T04:27:55;143388.91;;;7.20;100.00
5877;BME280;2964;42.144;24.730;2023-04-09T04:30:21;143330.03;;;6.95;100.00
5877;BME280;2964;42.144;24.730;2023-04-09T04:32:48;143338.81;;;6.99;100.00
5877;BME280;2964;42.144;24.730;2023-04-09T04:35:16;143382.63;;;7.17;100.00
5877;BME280;2964;42.144;24.730;2023-04-09T04:37:43;143381.38;;;7.17;100.00
5877;BME280;2964;42.144;24.730;2023-04-09T04:40:10;143371.38;;;7.12;100.00
5877;BME280;2964;42.144;24.730;2023-04-09T04:42:37;143415.22;;;7.30;100.00
5877;BME280;2964;42.144;24.730;2023-04-09T04:45:04;143406.44;;;7.27;100.00
5877;BME280;2964;42.144;24.730;2023-04-09T04:47:31;143360.06;;;7.08;100.00
5877;BME280;2964;42.144;24.730;2023-04-09T04:49:58;143408.94;;;7.28;100.00
5877;BME280;2964;42.144;24.730;2023-04-09T04:52:26;143391.38;;;7.21;100.00
5877;BME280;2964;42.144;24.730;2023-04-09T04:54:52;143392.66;;;7.21;100.00
5877;BME280;2964;42.144;24.730;2023-04-09T04:57:19;143397.69;;;7.23;100.00
5877;BME280;2964;42.144;24.730;2023-04-09T04:59:46;143442.78;;;7.42;100.00
5877;BME280;2964;42.144;24.730;2023-04-09T05:02:12;143439.00;;;7.40;100.00
5877;BME280;2964;42.144;24.730;2023-04-09T05:04:39;143439.00;;;7.40;100.00
5877;BME280;2964;42.144;24.730;2023-04-09T05:07:06;143410.16;;;7.28;100.00
5877;BME280;2964;42.144;24.730;2023-04-09T05:09:34;143406.44;;;7.27;100.00
5877;BME280;2964;42.144;24.730;2023-04-09T05:12:01;143441.47;;;7.41;100.00
5877;BME280;2964;42.144;24.730;2023-04-09T05:14:27;143459.03;;;7.48;100.00
5877;BME280;2964;42.144;24.730;2023-04-09T05:16:54;143418.94;;;7.32;100.00
5877;BME280;2964;42.144;24.730;2023-04-09T05:19:21;143462.81;;;7.50;100.00
5877;BME280;2964;42.144;24.730;2023-04-09T05:21:47;143449.00;;;7.44;100.00
5877;BME280;2964;42.144;24.730;2023-04-09T05:24:14;143461.56;;;7.49;100.00
5877;BME280;2964;42.144;24.730;2023-04-09T05:26:42;143489.13;;;7.61;100.00
5877;BME280;2964;42.144;24.730;2023-04-09T05:29:09;143485.34;;;7.59;100.00
5877;BME280;2964;42.144;24.730;2023-04-09T05:31:36;143474.09;;;7.54;100.00
5877;BME280;2964;42.144;24.730;2023-04-09T05:34:04;143541.75;;;7.82;100.00
5877;BME280;2964;42.144;24.730;2023-04-09T05:36:31;143546.78;;;7.84;100.00
5877;BME280;2964;42.144;24.730;2023-04-09T05:38:57;143583.13;;;7.99;100.00
5877;BME280;2964;42.144;24.730;2023-04-09T05:41:24;143593.13;;;8.03;100.00
5877;BME280;2964;42.144;24.730;2023-04-09T05:43:52;143596.91;;;8.05;100.00
5877;BME280;2964;42.144;24.730;2023-04-09T05:46:19;143611.94;;;8.11;100.00
5877;BME280;2964;42.144;24.730;2023-04-09T05:48:45;143628.25;;;8.18;100.00
5877;BME280;2964;42.144;24.730;2023-04-09T05:51:12;143613.22;;;8.11;100.00
5877;BME280;2964;42.144;24.730;2023-04-09T05:53:39;143624.47;;;8.16;100.00
5877;BME280;2964;42.144;24.730;2023-04-09T05:56:12;143644.50;;;8.24;100.00
5877;BME280;2964;42.144;24.730;2023-04-09T05:58:39;143669.59;;;8.35;100.00
5877;BME280;2964;42.144;24.730;2023-04-09T06:01:07;143694.75;;;8.45;100.00
5877;BME280;2964;42.144;24.730;2023-04-09T06:03:34;143708.53;;;8.50;100.00
5877;BME280;2964;42.144;24.730;2023-04-09T06:06:01;143714.78;;;8.53;100.00
5877;BME280;2964;42.144;24.730;2023-04-09T06:08:27;143727.34;;;8.58;100.00
5877;BME280;2964;42.144;24.730;2023-04-09T06:10:54;143724.81;;;8.57;100.00
5877;BME280;2964;42.144;24.730;2023-04-09T06:13:21;143704.78;;;8.49;100.00
5877;BME280;2964;42.144;24.730;2023-04-09T06:15:47;143719.81;;;8.55;100.00
5877;BME280;2964;42.144;24.730;2023-04-09T06:18:15;143785.03;;;8.82;99.51
5877;BME280;2964;42.144;24.730;2023-04-09T06:20:42;143788.75;;;8.83;98.75
5877;BME280;2964;42.144;24.730;2023-04-09T06:23:09;143818.88;;;8.96;98.29
5877;BME280;2964;42.144;24.730;2023-04-09T06:25:35;143847.78;;;9.07;98.04
5877;BME280;2964;42.144;24.730;2023-04-09T06:28:02;143850.25;;;9.08;97.62
5877;BME280;2964;42.144;24.730;2023-04-09T06:30:29;143874.06;;;9.18;97.46
5877;BME280;2964;42.144;24.730;2023-04-09T06:32:56;143855.25;;;9.11;97.33
5877;BME280;2964;42.144;24.730;2023-04-09T06:35:24;143884.16;;;9.22;97.61
5877;BME280;2964;42.144;24.730;2023-04-09T06:37:51;143866.56;;;9.15;97.83
5877;BME280;2964;42.144;24.730;2023-04-09T06:40:17;143959.41;;;9.53;95.46
5877;BME280;2964;42.144;24.730;2023-04-09T06:42:44;143879.13;;;9.20;95.94
5877;BME280;2964;42.144;24.730;2023-04-09T06:45:11;143913.00;;;9.34;95.14
5877;BME280;2964;42.144;24.730;2023-04-09T06:47:37;143995.81;;;9.68;94.29
5877;BME280;2964;42.144;24.730;2023-04-09T06:50:05;143847.78;;;9.07;94.47
5877;BME280;2964;42.144;24.730;2023-04-09T06:52:33;143943.13;;;9.46;94.37
5877;BME280;2964;42.144;24.730;2023-04-09T06:55:00;143818.88;;;8.96;95.00
5877;BME280;2964;42.144;24.730;2023-04-09T06:57:26;143842.72;;;9.05;96.18
5877;BME280;2964;42.144;24.730;2023-04-09T06:59:53;143925.53;;;9.39;94.68
5877;BME280;2964;42.144;24.730;2023-04-09T07:02:20;144003.34;;;9.71;94.66
5877;BME280;2964;42.144;24.730;2023-04-09T07:04:46;143968.19;;;9.57;93.95
5877;BME280;2964;42.144;24.730;2023-04-09T07:07:13;144018.41;;;9.77;93.17
5877;BME280;2964;42.144;24.730;2023-04-09T07:09:41;144073.66;;;10.00;92.52
5877;BME280;2964;42.144;24.730;2023-04-09T07:12:08;144064.88;;;9.96;92.33
5877;BME280;2964;42.144;24.730;2023-04-09T07:14:35;144112.56;;;10.16;92.16
5877;BME280;2964;42.144;24.730;2023-04-09T07:17:01;144151.56;;;10.32;91.18
5877;BME280;2964;42.144;24.730;2023-04-09T07:19:28;144151.56;;;10.32;91.11
5877;BME280;2964;42.144;24.730;2023-04-09T07:21:55;144176.66;;;10.42;90.49
5877;BME280;2964;42.144;24.730;2023-04-09T07:24:22;144174.16;;;10.41;90.35
5877;BME280;2964;42.144;24.730;2023-04-09T07:26:50;144176.66;;;10.42;90.42
5877;BME280;2964;42.144;24.730;2023-04-09T07:29:16;144229.41;;;10.63;90.08
5877;BME280;2964;42.144;24.730;2023-04-09T07:31:45;144252.03;;;10.73;89.82
5877;BME280;2964;42.144;24.730;2023-04-09T07:34:14;144331.19;;;11.05;88.99
5877;BME280;2964;42.144;24.730;2023-04-09T07:36:41;144299.78;;;10.92;89.03
5877;BME280;2964;42.144;24.730;2023-04-09T07:39:16;144378.94;;;11.25;86.89
5877;BME280;2964;42.144;24.730;2023-04-09T07:41:49;144488.31;;;11.69;85.17
5877;BME280;2964;42.144;24.730;2023-04-09T07:44:18;144820.44;;;13.05;82.40
5877;BME280;2964;42.144;24.730;2023-04-09T07:46:45;144986.66;;;13.73;78.38
5877;BME280;2964;42.144;24.730;2023-04-09T07:49:11;145074.78;;;14.08;77.26
5877;BME280;2964;42.144;24.730;2023-04-09T07:51:38;145062.19;;;14.03;77.68
5877;BME280;2964;42.144;24.730;2023-04-09T07:54:08;145024.41;;;13.88;78.70
5877;BME280;2964;42.144;24.730;2023-04-09T07:56:37;145006.78;;;13.81;77.41
5877;BME280;2964;42.144;24.730;2023-04-09T07:59:04;145157.97;;;14.42;74.15
5877;BME280;2964;42.144;24.730;2023-04-09T08:01:32;145178.09;;;14.51;74.48
5877;BME280;2964;42.144;24.730;2023-04-09T08:04:03;145253.75;;;14.81;73.30
5877;BME280;2964;42.144;24.730;2023-04-09T08:06:30;145150.38;;;14.39;73.10
5877;BME280;2964;42.144;24.730;2023-04-09T08:08:57;145134.00;;;14.33;72.92
5877;BME280;2964;42.144;24.730;2023-04-09T08:11:29;145369.69;;;15.29;70.03
5877;BME280;2964;42.144;24.730;2023-04-09T08:13:59;145068.50;;;14.06;71.57
5877;BME280;2964;42.144;24.730;2023-04-09T08:16:50;145193.19;;;14.57;71.22
5877;BME280;2964;42.144;24.730;2023-04-09T08:19:21;145291.56;;;14.97;69.66
5877;BME280;2964;42.144;24.730;2023-04-09T08:21:50;145306.66;;;15.03;70.72
5877;BME280;2964;42.144;24.730;2023-04-09T08:24:17;145142.81;;;14.36;73.47
5877;BME280;2964;42.144;24.730;2023-04-09T08:26:44;145074.78;;;14.08;72.65
5877;BME280;2964;42.144;24.730;2023-04-09T08:29:11;145166.78;;;14.46;73.41
5877;BME280;2964;42.144;24.730;2023-04-09T08:31:38;145174.31;;;14.49;72.23
5877;BME280;2964;42.144;24.730;2023-04-09T08:34:05;145231.09;;;14.72;73.64
5877;BME280;2964;42.144;24.730;2023-04-09T08:36:33;145376.03;;;15.31;69.87
5877;BME280;2964;42.144;24.730;2023-04-09T08:39:00;145321.81;;;15.09;69.37
5877;BME280;2964;42.144;24.730;2023-04-09T08:41:27;145208.41;;;14.63;68.27
5877;BME280;2964;42.144;24.730;2023-04-09T08:43:55;145423.91;;;15.51;67.50
5877;BME280;2964;42.144;24.730;2023-04-09T08:46:22;145246.19;;;14.78;69.39
5877;BME280;2964;42.144;24.730;2023-04-09T08:48:50;145131.50;;;14.32;71.05
5877;BME280;2964;42.144;24.730;2023-04-09T08:51:18;145006.78;;;13.81;71.27
5877;BME280;2964;42.144;24.730;2023-04-09T08:53:47;145113.84;;;14.24;72.29
5877;BME280;2964;42.144;24.730;2023-04-09T08:56:17;145339.47;;;15.16;67.70
5877;BME280;2964;42.144;24.730;2023-04-09T08:58:44;145316.78;;;15.07;68.58
5877;BME280;2964;42.144;24.730;2023-04-09T09:01:19;145228.53;;;14.71;70.09
5877;BME280;2964;42.144;24.730;2023-04-09T09:03:57;145226.03;;;14.70;71.17
5877;BME280;2964;42.144;24.730;2023-04-09T09:06:25;145534.97;;;15.96;69.23
5877;BME280;2964;42.144;24.730;2023-04-09T09:09:01;145702.75;;;16.64;64.00
5877;BME280;2964;42.144;24.730;2023-04-09T09:11:28;145358.38;;;15.24;65.47
5877;BME280;2964;42.144;24.730;2023-04-09T09:13:59;145173.06;;;14.48;69.25
5877;BME280;2964;42.144;24.730;2023-04-09T09:16:26;145451.66;;;15.62;66.58
5877;BME280;2964;42.144;24.730;2023-04-09T09:18:53;145712.84;;;16.68;65.77
5877;BME280;2964;42.144;24.730;2023-04-09T09:21:21;145889.63;;;17.40;62.20
5877;BME280;2964;42.144;24.730;2023-04-09T09:23:48;145897.22;;;17.43;60.90
5877;BME280;2964;42.144;24.730;2023-04-09T09:26:19;145757.09;;;16.86;62.16
5877;BME280;2964;42.144;24.730;2023-04-09T09:28:47;146007.13;;;17.88;58.46
5877;BME280;2964;42.144;24.730;2023-04-09T09:31:15;145980.56;;;17.77;59.68
5877;BME280;2964;42.144;24.730;2023-04-09T09:33:42;145729.28;;;16.75;61.51
5877;BME280;2964;42.144;24.730;2023-04-09T09:36:08;145289.06;;;14.96;65.31
5877;BME280;2964;42.144;24.730;2023-04-09T09:38:50;145396.19;;;15.39;67.36
5877;BME280;2964;42.144;24.730;2023-04-09T09:41:19;145639.66;;;16.38;63.58
5877;BME280;2964;42.144;24.730;2023-04-09T09:43:46;145461.78;;;15.66;63.22
5877;BME280;2964;42.144;24.730;2023-04-09T09:46:14;145379.81;;;15.33;65.41
5877;BME280;2964;42.144;24.730;2023-04-09T09:48:41;145796.19;;;17.02;62.47
5877;BME280;2964;42.144;24.730;2023-04-09T09:51:09;145776.00;;;16.94;60.32
5877;BME280;2964;42.144;24.730;2023-04-09T09:53:37;145955.28;;;17.67;59.02
5877;BME280;2964;42.144;24.730;2023-04-09T09:56:05;145892.19;;;17.41;59.58
5877;BME280;2964;42.144;24.730;2023-04-09T09:58:36;145925.00;;;17.54;59.93
5877;BME280;2964;42.144;24.730;2023-04-09T10:01:07;145962.88;;;17.70;60.32
5877;BME280;2964;42.144;24.730;2023-04-09T10:03:37;146137.28;;;18.41;56.59
5877;BME280;2964;42.144;24.730;2023-04-09T10:06:05;146142.34;;;18.43;58.52
5877;BME280;2964;42.144;24.730;2023-04-09T10:08:32;145687.59;;;16.58;59.00
5877;BME280;2964;42.144;24.730;2023-04-09T10:11:00;145733.03;;;16.76;59.31
5877;BME280;2964;42.144;24.730;2023-04-09T10:13:36;145566.50;;;16.09;60.28
5877;BME280;2964;42.144;24.730;2023-04-09T10:16:08;145687.59;;;16.58;59.69
5877;BME280;2964;42.144;24.730;2023-04-09T10:18:35;145231.09;;;14.72;63.00
5877;BME280;2964;42.144;24.730;2023-04-09T10:21:08;145418.88;;;15.49;62.39
5877;BME280;2964;42.144;24.730;2023-04-09T10:23:39;145481.97;;;15.74;62.82
5877;BME280;2964;42.144;24.730;2023-04-09T10:26:06;145471.84;;;15.70;62.98
5877;BME280;2964;42.144;24.730;2023-04-09T10:28:33;145299.13;;;15.00;62.97
5877;BME280;2964;42.144;24.730;2023-04-09T10:31:03;145412.59;;;15.46;61.87
5877;BME280;2964;42.144;24.730;2023-04-09T10:33:32;145271.41;;;14.89;62.81
5877;BME280;2964;42.144;24.730;2023-04-09T10:36:04;145368.47;;;15.28;62.45
5877;BME280;2964;42.144;24.730;2023-04-09T10:38:35;145352.03;;;15.21;63.38
5877;BME280;2964;42.144;24.730;2023-04-09T10:41:06;145412.59;;;15.46;62.58
5877;BME280;2964;42.144;24.730;2023-04-09T10:43:34;145367.22;;;15.28;60.77
5877;BME280;2964;42.144;24.730;2023-04-09T10:46:03;145360.88;;;15.25;61.78
5877;BME280;2964;42.144;24.730;2023-04-09T10:48:33;145349.56;;;15.20;59.69
5877;BME280;2964;42.144;24.730;2023-04-09T10:51:01;145292.81;;;14.97;59.79
5877;BME280;2964;42.144;24.730;2023-04-09T10:53:31;145282.72;;;14.93;61.17
5877;BME280;2964;42.144;24.730;2023-04-09T10:55:58;145272.66;;;14.89;63.74
5877;BME280;2964;42.144;24.730;2023-04-09T10:58:25;145207.09;;;14.62;63.62
5877;BME280;2964;42.144;24.730;2023-04-09T11:00:52;145276.44;;;14.91;62.77
5877;BME280;2964;42.144;24.730;2023-04-09T11:03:24;145311.75;;;15.05;62.09
5877;BME280;2964;42.144;24.730;2023-04-09T11:05:57;145344.50;;;15.18;56.06
5877;BME280;2964;42.144;24.730;2023-04-09T11:08:27;145168.03;;;14.46;56.34
5877;BME280;2964;42.144;24.730;2023-04-09T11:10:55;145110.06;;;14.23;56.70
5877;BME280;2964;42.144;24.730;2023-04-09T11:13:25;145123.91;;;14.28;57.85
5877;BME280;2964;42.144;24.730;2023-04-09T11:15:53;145058.44;;;14.02;58.64
5877;BME280;2964;42.144;24.730;2023-04-09T11:18:22;145215.94;;;14.66;57.56
5877;BME280;2964;42.144;24.730;2023-04-09T11:20:54;145134.00;;;14.33;56.01
5877;BME280;2964;42.144;24.730;2023-04-09T11:23:22;145140.31;;;14.35;55.97
5877;BME280;2964;42.144;24.730;2023-04-09T11:25:50;145117.63;;;14.26;56.16
5877;BME280;2964;42.144;24.730;2023-04-09T11:28:17;145102.50;;;14.20;56.89
5877;BME280;2964;42.144;24.730;2023-04-09T11:30:44;145131.50;;;14.32;57.04
5877;BME280;2964;42.144;24.730;2023-04-09T11:33:12;145079.81;;;14.10;52.38
5877;BME280;2964;42.144;24.730;2023-04-09T11:35:39;145126.47;;;14.29;53.71
5877;BME280;2964;42.144;24.730;2023-04-09T11:38:08;145132.75;;;14.32;53.70
5877;BME280;2964;42.144;24.730;2023-04-09T11:40:36;145159.22;;;14.43;53.61
5877;BME280;2964;42.144;24.730;2023-04-09T11:43:08;145059.69;;;14.02;50.25
5877;BME280;2964;42.144;24.730;2023-04-09T11:45:34;145004.28;;;13.80;51.50
5877;BME280;2964;42.144;24.730;2023-04-09T11:48:01;145132.75;;;14.32;52.51
5877;BME280;2964;42.144;24.730;2023-04-09T11:50:28;145168.03;;;14.46;51.62
5877;BME280;2964;42.144;24.730;2023-04-09T11:52:55;145161.69;;;14.44;49.52
5877;BME280;2964;42.144;24.730;2023-04-09T11:55:23;145180.63;;;14.52;49.70
5877;BME280;2964;42.144;24.730;2023-04-09T11:57:52;145173.06;;;14.48;49.82
5877;BME280;2964;42.144;24.730;2023-04-09T12:00:19;145223.50;;;14.69;48.63
5877;BME280;2964;42.144;24.730;2023-04-09T12:02:47;145239.91;;;14.76;47.72
5877;BME280;2964;42.144;24.730;2023-04-09T12:05:21;145285.28;;;14.94;49.80
5877;BME280;2964;42.144;24.730;2023-04-09T12:07:49;145275.16;;;14.90;50.88
5877;BME280;2964;42.144;24.730;2023-04-09T12:10:15;145306.66;;;15.03;50.78
5877;BME280;2964;42.144;24.730;2023-04-09T12:12:45;145280.25;;;14.92;49.74
5877;BME280;2964;42.144;24.730;2023-04-09T12:15:18;145329.34;;;15.12;48.93
5877;BME280;2964;42.144;24.730;2023-04-09T12:17:47;145344.50;;;15.18;49.66
5877;BME280;2964;42.144;24.730;2023-04-09T12:20:29;145318.03;;;15.08;48.25
5877;BME280;2964;42.144;24.730;2023-04-09T12:22:56;145379.81;;;15.33;49.79
5877;BME280;2964;42.144;24.730;2023-04-09T12:25:24;145306.66;;;15.03;49.35
5877;BME280;2964;42.144;24.730;2023-04-09T12:27:53;145273.91;;;14.90;50.02
5877;BME280;2964;42.144;24.730;2023-04-09T12:30:20;145291.56;;;14.97;50.35
5877;BME280;2964;42.144;24.730;2023-04-09T12:32:46;145291.56;;;14.97;50.08
5877;BME280;2964;42.144;24.730;2023-04-09T12:35:13;145228.53;;;14.71;50.81
5877;BME280;2964;42.144;24.730;2023-04-09T12:37:40;145310.44;;;15.04;51.20
5877;BME280;2964;42.144;24.730;2023-04-09T12:40:08;145315.50;;;15.06;51.67
5877;BME280;2964;42.144;24.730;2023-04-09T12:42:35;145304.16;;;15.02;52.43
5877;BME280;2964;42.144;24.730;2023-04-09T12:45:03;145347.00;;;15.19;52.15
5877;BME280;2964;42.144;24.730;2023-04-09T12:47:30;145399.97;;;15.41;51.09
5877;BME280;2964;42.144;24.730;2023-04-09T12:49:57;145417.63;;;15.48;51.17
5877;BME280;2964;42.144;24.730;2023-04-09T12:52:23;145413.84;;;15.47;51.33
5877;BME280;2964;42.144;24.730;2023-04-09T12:54:51;145344.50;;;15.18;52.08
5877;BME280;2964;42.144;24.730;2023-04-09T12:57:17;145324.31;;;15.10;53.13
5877;BME280;2964;42.144;24.730;2023-04-09T12:59:44;145262.59;;;14.85;53.48
5877;BME280;2964;42.144;24.730;2023-04-09T13:02:12;145229.78;;;14.72;53.97
5877;BME280;2964;42.144;24.730;2023-04-09T13:04:39;145241.16;;;14.76;53.87